Terminal Aerodrome Forecast
Issued by NWS

Home | Current Version | Previous Version | Text Only | Print | Product List | Glossary Off
Versions: 1 2 3 4 5 6 7 8 9 10 11 12 13 14 15 16 17 18 19

000
FTUS43 KABR 211329 AAA
TAFPIR
TAF AMD
KPIR 211329Z 2113/2212 09010KT P6SM BKN080
      TEMPO 2113/2115 VRB32G48KT 2SM +TSRA BKN015CB
     FM211500 35005KT P6SM BKN035
     FM220000 35011KT P6SM FEW200
     FM220500 35007KT P6SM FEW250=

USA.gov is the U.S. government's official web portal to all federal, state and local government web resources and services.